Time;durP1;ratioP1;P1;durP2;ratioP2;P2;SDS_P1;SDS_P2;PMS_P1;PMS_P2;Temp;Humidity;BMP_temperature;BMP_pressure;BME280_temperature;BME280_humidity;BME280_pressure;Samples;Min_cycle;Max_cycle;Signal;HPM_P1;HPM_P2
2022/01/26 00:08:01;;;;;;;19.00;8.90;;;;;;;-5.82;63.35;95733.84;4889101;29;20210;-76
2022/01/26 00:10:28;;;;;;;22.65;10.35;;;;;;;-5.76;63.17;95722.75;4915281;29;20221;-77
2022/01/26 00:12:57;;;;;;;19.80;11.07;;;;;;;-5.75;62.59;95717.63;4915510;29;20211;-77
2022/01/26 00:15:24;;;;;;;14.82;9.60;;;;;;;-5.76;62.64;95720.22;4915367;29;20227;-77
2022/01/26 00:17:53;;;;;;;21.55;11.02;;;;;;;-5.75;62.78;95709.13;4915677;29;20226;-77
2022/01/26 00:20:25;;;;;;;18.67;10.10;;;;;;;-5.67;63.26;95713.28;4915375;29;20207;-77
2022/01/26 00:23:07;;;;;;;21.88;11.38;;;;;;;-5.66;63.02;95709.88;4915332;29;20298;-76
2022/01/26 00:25:45;;;;;;;20.08;9.82;;;;;;;-5.66;62.95;95715.00;4915404;29;20294;-77
2022/01/26 00:39:11;;;;;;;20.88;10.35;;;;;;;-5.69;62.68;95707.34;4896102;29;20220;-77
2022/01/26 00:41:40;;;;;;;18.27;9.55;;;;;;;-5.67;62.69;95699.66;4905093;28;20223;-78
2022/01/26 00:44:09;;;;;;;14.30;8.38;;;;;;;-5.63;61.97;95702.19;4972488;28;20212;-77
2022/01/26 00:46:37;;;;;;;15.75;10.20;;;;;;;-5.69;62.19;95702.25;4972316;28;20205;-78
2022/01/26 00:49:04;;;;;;;13.40;9.32;;;;;;;-5.63;62.22;95709.84;4972232;28;20276;-77
2022/01/26 00:51:31;;;;;;;17.08;8.75;;;;;;;-5.59;61.84;95710.66;4940498;28;20206;-78
2022/01/26 00:54:03;;;;;;;19.92;9.88;;;;;;;-5.55;61.89;95708.91;4972495;28;20220;-77
2022/01/26 00:56:30;;;;;;;15.35;10.20;;;;;;;-5.52;61.42;95708.88;4972134;28;20552;-77
2022/01/26 00:58:59;;;;;;;18.38;9.40;;;;;;;-5.50;61.14;95707.16;4971338;28;20213;-78
2022/01/26 01:01:28;;;;;;;17.90;11.27;;;;;;;-5.52;60.71;95714.84;4972026;28;20202;-78
2022/01/26 01:03:55;;;;;;;16.40;8.65;;;;;;;-5.59;61.30;95710.66;4972019;28;20205;-77
2022/01/26 01:06:25;;;;;;;45.55;22.77;;;;;;;-5.85;61.94;95705.78;4972101;28;20528;-77
2022/01/26 01:08:55;;;;;;;85.13;34.03;;;;;;;-6.17;65.20;95703.50;4972211;28;20260;-76
2022/01/26 01:11:22;;;;;;;78.03;36.25;;;;;;;-6.26;66.08;95708.69;5014057;28;20211;-77
2022/01/26 01:13:49;;;;;;;50.92;25.33;;;;;;;-6.98;69.16;95701.44;5032779;28;20622;-77
2022/01/26 01:16:21;;;;;;;61.97;29.83;;;;;;;-6.82;69.41;95707.31;5033308;28;20213;-78
2022/01/26 01:18:58;;;;;;;57.00;28.50;;;;;;;-7.15;70.76;95703.22;5030032;28;20206;-78
2022/01/26 01:24:36;;;;;;;70.53;32.65;;;;;;;-6.94;71.11;95705.69;5032783;28;20333;-76
2022/01/26 01:27:23;;;;;;;68.72;30.85;;;;;;;-6.87;71.50;95699.69;5033474;28;20199;-76
2022/01/26 01:30:01;;;;;;;64.35;31.27;;;;;;;-6.81;71.90;95700.50;5033055;28;20320;-77
2022/01/26 01:32:36;;;;;;;51.53;29.92;;;;;;;-6.70;71.49;95691.09;4986922;28;20235;-76
2022/01/26 01:35:10;;;;;;;69.28;35.45;;;;;;;-6.63;71.29;95697.88;5013240;28;20204;-76
2022/01/26 01:37:37;;;;;;;71.53;35.97;;;;;;;-6.52;71.45;95688.44;5013099;28;20208;-77
2022/01/26 01:40:05;;;;;;;68.13;32.97;;;;;;;-6.41;70.89;95688.34;5013136;28;20250;-77
2022/01/26 01:42:31;;;;;;;64.82;32.00;;;;;;;-6.37;70.72;95682.38;5013824;28;20211;-77
2022/01/26 01:44:58;;;;;;;80.43;33.67;;;;;;;-6.31;70.82;95688.31;5012936;28;20212;-77
2022/01/26 01:47:25;;;;;;;85.95;35.47;;;;;;;-6.26;70.36;95683.16;5013123;28;20200;-77
2022/01/26 01:49:52;;;;;;;86.70;38.20;;;;;;;-6.16;69.88;95678.81;5012967;28;20220;-76
2022/01/26 01:52:21;;;;;;;87.60;37.22;;;;;;;-6.11;70.14;95679.63;5012878;28;20639;-77
2022/01/26 01:54:52;;;;;;;76.40;36.00;;;;;;;-6.00;70.23;95663.38;5012959;28;20295;-76
2022/01/26 01:57:23;;;;;;;81.63;38.00;;;;;;;-5.93;69.80;95669.25;5013008;28;20200;-77
2022/01/26 01:59:50;;;;;;;96.63;39.22;;;;;;;-5.82;69.93;95671.69;5013227;28;20204;-77
2022/01/26 02:02:17;;;;;;;78.00;36.47;;;;;;;-5.79;69.27;95667.38;5012982;28;20212;-77
2022/01/26 02:04:44;;;;;;;68.25;29.63;;;;;;;-5.76;69.29;95662.28;5012851;28;20208;-77
2022/01/26 02:07:12;;;;;;;55.72;25.85;;;;;;;-5.73;67.94;95661.41;5012848;28;20655;-77
2022/01/26 02:09:41;;;;;;;40.35;20.65;;;;;;;-5.72;67.18;95658.81;5013012;28;20232;-77
2022/01/26 02:12:14;;;;;;;44.97;20.70;;;;;;;-5.72;67.82;95663.09;5016731;28;20196;-75
2022/01/26 02:14:45;;;;;;;44.13;20.42;;;;;;;-5.65;67.55;95660.44;5016264;28;20617;-78
2022/01/26 02:17:23;;;;;;;30.90;16.35;;;;;;;-5.57;67.23;95668.03;5016345;28;20196;-77
2022/01/26 02:53:05;;;;;;;46.70;22.75;;;;;;;-5.26;68.66;95650.66;4993733;28;20200;-77
2022/01/26 02:55:39;;;;;;;48.72;20.90;;;;;;;-5.26;68.26;95649.78;4993748;28;20303;-77
2022/01/26 03:01:05;;;;;;;44.22;19.90;;;;;;;-5.14;69.04;95642.84;4974424;28;20201;-77
2022/01/26 03:03:38;;;;;;;34.70;17.15;;;;;;;-5.07;68.62;95638.50;4974312;28;20220;-77
2022/01/26 03:06:08;;;;;;;29.77;15.65;;;;;;;-4.99;68.29;95634.97;4974265;28;20214;-77
2022/01/26 03:08:39;;;;;;;24.20;13.10;;;;;;;-4.92;67.54;95640.00;4974073;28;20277;-77
2022/01/26 03:11:10;;;;;;;21.10;11.82;;;;;;;-4.85;67.44;95633.94;4974210;28;20240;-77
2022/01/26 03:13:41;;;;;;;31.70;12.90;;;;;;;-4.85;67.71;95628.84;4973962;28;20224;-77
2022/01/26 03:16:13;;;;;;;17.60;10.85;;;;;;;-4.92;66.90;95632.31;4973701;28;20208;-77
2022/01/26 03:19:04;;;;;;;20.65;10.45;;;;;;;-4.75;66.89;95628.66;4973947;28;20220;-78
2022/01/26 03:21:37;;;;;;;18.85;10.70;;;;;;;-4.65;66.91;95637.06;4973300;28;20536;-77
2022/01/26 03:29:55;;;;;;;35.38;16.83;;;;;;;-4.55;66.50;95633.53;4973649;28;20333;-76
2022/01/26 03:35:04;;;;;;;54.80;22.15;;;;;;;-4.50;67.67;95624.06;4897495;29;20196;-77
2022/01/26 03:37:37;;;;;;;53.33;27.13;;;;;;;-4.56;68.42;95624.16;4924481;28;20284;-76
2022/01/26 03:40:12;;;;;;;61.55;28.58;;;;;;;-4.63;68.83;95632.75;4973515;28;20244;-77
2022/01/26 03:42:42;;;;;;;58.50;27.33;;;;;;;-4.59;70.09;95629.31;4973620;28;20247;-77
2022/01/26 03:45:09;;;;;;;45.38;27.75;;;;;;;-4.55;69.79;95625.84;4941059;28;20194;-76
2022/01/26 03:47:36;;;;;;;64.30;28.83;;;;;;;-4.75;69.73;95623.56;4973410;28;20205;-77
2022/01/26 03:50:04;;;;;;;62.47;32.45;;;;;;;-4.73;69.56;95620.97;4973336;28;20221;-77
2022/01/26 03:52:31;;;;;;;55.67;29.65;;;;;;;-4.64;69.75;95620.84;4973364;28;20239;-77
2022/01/26 03:54:58;;;;;;;49.05;26.33;;;;;;;-4.60;69.56;95621.66;4925617;28;20240;-77
2022/01/26 03:57:26;;;;;;;57.65;29.67;;;;;;;-4.52;69.45;95623.22;4973407;28;20565;-77
2022/01/26 03:59:54;;;;;;;56.22;28.17;;;;;;;-4.58;69.79;95612.25;4973328;28;20232;-77
2022/01/26 04:02:21;;;;;;;57.47;28.00;;;;;;;-4.53;69.66;95613.84;4973298;28;20216;-77
2022/01/26 04:04:54;;;;;;;51.00;28.92;;;;;;;-4.55;70.73;95609.63;4972918;28;20198;-76
2022/01/26 04:07:21;;;;;;;53.42;28.52;;;;;;;-4.55;70.53;95604.50;4973058;28;20684;-77
2022/01/26 04:09:48;;;;;;;55.20;28.52;;;;;;;-4.48;70.93;95612.06;4925164;28;20232;-77
2022/01/26 04:12:15;;;;;;;52.45;25.70;;;;;;;-4.49;71.09;95602.69;5000992;28;20204;-77
2022/01/26 04:14:47;;;;;;;43.20;24.88;;;;;;;-4.42;73.96;95609.41;4999202;28;20210;-77
2022/01/26 04:17:15;;;;;;;45.90;24.55;;;;;;;-4.42;72.26;95611.13;5034001;28;20207;-76
2022/01/26 04:19:44;;;;;;;50.13;23.35;;;;;;;-4.40;72.13;95604.25;5033651;28;20214;-77
2022/01/26 04:22:17;;;;;;;44.35;22.75;;;;;;;-4.37;72.32;95599.09;4999821;28;20206;-77
2022/01/26 04:24:48;;;;;;;31.27;16.25;;;;;;;-4.33;71.76;95594.78;5033924;28;20269;-77
2022/01/26 04:27:21;;;;;;;28.92;12.98;;;;;;;-4.28;70.44;95593.00;5033431;28;20203;-75
2022/01/26 04:29:49;;;;;;;30.98;17.75;;;;;;;-4.32;70.52;95586.22;5033540;28;20233;-77
2022/01/26 04:32:18;;;;;;;44.42;22.70;;;;;;;-4.47;70.64;95588.16;5033538;28;20231;-77
2022/01/26 04:34:47;;;;;;;66.22;30.15;;;;;;;-4.53;71.90;95593.38;5033349;28;20747;-78
2022/01/26 04:37:24;;;;;;;69.65;33.75;;;;;;;-4.61;72.32;95589.25;5033774;28;20203;-77
2022/01/26 04:39:56;;;;;;;70.78;32.80;;;;;;;-4.56;72.81;95595.13;5033831;28;20272;-76
2022/01/26 04:42:31;;;;;;;66.20;33.65;;;;;;;-4.60;72.76;95596.06;5034037;28;20199;-76
2022/01/26 04:45:02;;;;;;;1100.57;440.17;;;;;;;-4.61;72.82;95589.25;5033607;28;20211;-77
2022/01/26 04:47:31;;;;;;;542.03;204.20;;;;;;;-4.57;73.67;95590.88;5033384;28;20217;-78
2022/01/26 04:49:58;;;;;;;131.55;56.10;;;;;;;-4.64;73.32;95590.09;5033666;28;20238;-77
2022/01/26 04:52:25;;;;;;;80.22;36.80;;;;;;;-4.72;73.20;95597.06;5033897;28;20291;-77
2022/01/26 04:54:53;;;;;;;59.42;29.48;;;;;;;-4.74;72.12;95583.44;5033059;28;20205;-77
2022/01/26 04:57:20;;;;;;;52.90;24.38;;;;;;;-5.06;71.99;95579.63;5033430;28;20195;-77
2022/01/26 04:59:46;;;;;;;49.67;27.05;;;;;;;-5.20;73.06;95589.22;5032315;28;20207;-77
2022/01/26 05:02:13;;;;;;;56.47;25.65;;;;;;;-5.07;73.58;95584.75;5032259;28;20211;-77
2022/01/26 05:04:42;;;;;;;61.30;27.30;;;;;;;-5.07;73.86;95584.75;4997307;28;20214;-77
2022/01/26 05:07:08;;;;;;;67.78;28.15;;;;;;;-5.43;75.00;95596.31;5031935;28;20203;-77
2022/01/26 05:09:36;;;;;;;54.05;28.92;;;;;;;-5.32;75.25;95585.06;5032154;28;20201;-77
2022/01/26 05:12:03;;;;;;;59.90;25.73;;;;;;;-5.22;74.65;95575.56;5031874;28;20231;-77
2022/01/26 05:14:30;;;;;;;50.90;26.58;;;;;;;-5.22;75.30;95585.78;5032684;28;20206;-77
2022/01/26 05:16:57;;;;;;;59.67;26.73;;;;;;;-5.20;75.23;95586.66;4998263;28;20210;-77
2022/01/26 05:19:24;;;;;;;51.17;28.45;;;;;;;-5.16;75.42;95588.28;5033162;28;20662;-77
2022/01/26 05:21:52;;;;;;;57.95;29.35;;;;;;;-5.10;75.54;95595.88;5033037;28;20210;-76
2022/01/26 05:24:20;;;;;;;54.30;27.73;;;;;;;-4.90;75.15;95595.63;5033217;28;20200;-76
2022/01/26 05:26:47;;;;;;;54.88;27.33;;;;;;;-5.05;75.46;95589.00;4997703;28;20223;-79
2022/01/26 05:29:14;;;;;;;52.42;26.85;;;;;;;-4.94;75.54;95581.16;5032876;28;20215;-77
2022/01/26 05:31:41;;;;;;;61.97;25.75;;;;;;;-4.75;75.08;95587.72;5033023;28;20242;-77
2022/01/26 05:34:08;;;;;;;62.35;29.05;;;;;;;-4.54;74.70;95584.00;5033314;28;20195;-79
2022/01/26 05:36:35;;;;;;;59.45;32.47;;;;;;;-4.80;74.99;95583.53;5033562;28;20219;-77
2022/01/26 05:39:04;;;;;;;58.33;25.40;;;;;;;-4.76;75.14;95580.91;5033140;28;20203;-78
2022/01/26 05:41:31;;;;;;;51.00;24.27;;;;;;;-4.86;75.06;95581.06;5032973;28;20202;-78
2022/01/26 05:43:59;;;;;;;50.25;25.38;;;;;;;-4.65;74.42;95578.19;5032996;28;20270;-78
2022/01/26 05:46:31;;;;;;;50.42;23.27;;;;;;;-4.75;74.54;95585.16;5035995;28;20744;-78
2022/01/26 05:48:58;;;;;;;54.50;22.70;;;;;;;-4.53;74.29;95582.28;5036564;28;20214;-76
2022/01/26 05:51:26;;;;;;;41.70;22.05;;;;;;;-4.50;73.73;95587.34;5036519;28;20233;-78
2022/01/26 05:53:53;;;;;;;49.63;24.10;;;;;;;-4.44;73.52;95577.84;5036638;28;20635;-78
2022/01/26 05:56:22;;;;;;;49.33;22.52;;;;;;;-4.39;72.36;95576.06;5036637;28;20225;-78
2022/01/26 05:58:49;;;;;;;42.90;22.67;;;;;;;-4.38;72.87;95576.91;5036554;28;20290;-78
2022/01/26 06:01:16;;;;;;;41.30;22.65;;;;;;;-4.29;72.46;95578.50;5036584;28;20187;-77
2022/01/26 06:03:43;;;;;;;54.55;26.00;;;;;;;-4.33;72.16;95580.25;5036185;28;20203;-77
2022/01/26 06:06:10;;;;;;;59.55;31.98;;;;;;;-4.47;73.36;95584.75;5036558;28;20222;-78
2022/01/26 06:08:36;;;;;;;68.50;30.92;;;;;;;-4.61;74.17;95590.09;5036393;28;20203;-77
2022/01/26 06:11:04;;;;;;;61.70;31.40;;;;;;;-4.55;73.93;95586.59;5035994;28;20231;-78
2022/01/26 06:13:32;;;;;;;66.10;32.30;;;;;;;-4.68;74.06;95588.47;5036580;28;20250;-78
2022/01/26 06:15:59;;;;;;;71.88;34.38;;;;;;;-4.63;74.80;95586.69;5036281;28;20211;-79
2022/01/26 06:18:26;;;;;;;52.65;31.05;;;;;;;-4.67;75.04;95585.03;5036298;28;20195;-77
2022/01/26 06:20:55;;;;;;;58.08;29.83;;;;;;;-4.58;74.60;95574.69;5036279;28;20200;-79
2022/01/26 06:23:25;;;;;;;57.85;30.15;;;;;;;-4.51;74.35;95568.59;5036096;28;20298;-78
2022/01/26 06:25:52;;;;;;;58.15;28.90;;;;;;;-4.65;74.38;95575.63;5035798;28;20199;-78
2022/01/26 06:28:19;;;;;;;58.28;29.27;;;;;;;-4.57;74.92;95580.66;5036054;28;20204;-78
2022/01/26 06:30:48;;;;;;;59.63;29.35;;;;;;;-4.49;74.25;95571.97;5035276;28;20233;-76
2022/01/26 06:33:16;;;;;;;50.78;28.02;;;;;;;-4.30;74.56;95576.81;5036310;28;20207;-80
2022/01/26 06:35:43;;;;;;;63.75;27.83;;;;;;;-4.30;74.39;95581.94;5036108;28;20203;-77
2022/01/26 06:38:10;;;;;;;57.17;30.23;;;;;;;-4.31;73.97;95583.63;5036140;28;20299;-79
2022/01/26 06:40:37;;;;;;;64.55;38.00;;;;;;;-4.44;74.27;95579.56;4984741;28;20207;-79
2022/01/26 06:43:09;;;;;;;62.00;29.75;;;;;;;-4.41;75.21;95575.25;4984977;28;20200;-79
2022/01/26 06:45:42;;;;;;;71.72;42.58;;;;;;;-4.33;75.55;95576.84;5036047;28;20601;-80
2022/01/26 06:48:38;;;;;;;62.65;34.05;;;;;;;-4.17;75.46;95578.28;5035436;28;20179;-80
2022/01/26 06:51:03;;;;;;;54.42;29.05;;;;;;;-3.92;74.86;95573.56;5035501;28;20698;-80
2022/01/26 06:53:29;;;;;;;48.95;26.83;;;;;;;-3.85;74.28;95573.44;5036136;28;20221;-80
2022/01/26 06:55:57;;;;;;;73.15;34.58;;;;;;;-3.85;75.00;95578.56;5035161;28;20441;-79
2022/01/26 06:58:24;;;;;;;63.40;33.50;;;;;;;-3.66;74.93;95578.22;5034576;28;20206;-79
2022/01/26 07:00:51;;;;;;;69.85;37.58;;;;;;;-3.62;75.54;95580.69;5035228;28;20214;-80
2022/01/26 07:03:20;;;;;;;68.65;30.30;;;;;;;-3.51;75.73;95577.91;5035629;28;20654;-79
2022/01/26 07:05:47;;;;;;;69.78;35.53;;;;;;;-3.56;75.83;95577.16;5035396;28;20274;-79
2022/01/26 07:08:14;;;;;;;74.85;36.53;;;;;;;-3.36;75.89;95580.19;5036193;28;20567;-79
2022/01/26 07:10:41;;;;;;;58.35;31.63;;;;;;;-3.26;75.97;95579.13;5035268;28;20269;-78
2022/01/26 07:13:08;;;;;;;57.85;30.73;;;;;;;-3.07;76.51;95568.50;5035255;28;20192;-80
2022/01/26 07:24:00;;;;;;;36.75;18.45;;;;;;;-2.64;80.81;95564.09;4992172;28;20208;-77
2022/01/26 07:26:29;;;;;;;33.17;17.00;;;;;;;-2.58;80.49;95560.56;4993379;28;20671;-77
2022/01/26 07:28:56;;;;;;;33.72;15.50;;;;;;;-2.51;81.98;95560.38;4993752;28;20748;-77
2022/01/26 07:31:23;;;;;;;37.20;18.63;;;;;;;-2.41;81.23;95560.16;4993325;28;20247;-77
2022/01/26 07:33:54;;;;;;;28.80;16.25;;;;;;;-2.39;81.11;95563.53;4993253;28;20649;-79
2022/01/26 07:36:21;;;;;;;26.88;15.75;;;;;;;-2.32;80.95;95568.47;4946631;28;20217;-77
2022/01/26 07:38:51;;;;;;;25.77;15.43;;;;;;;-2.22;80.75;95571.69;4993199;28;20216;-76
2022/01/26 07:41:19;;;;;;;28.02;15.88;;;;;;;-2.24;80.96;95552.88;4993091;28;20291;-76
2022/01/26 07:43:46;;;;;;;29.83;17.13;;;;;;;-2.26;81.92;95559.78;4993204;28;20200;-78
2022/01/26 07:46:13;;;;;;;28.60;15.90;;;;;;;-2.25;81.65;95562.31;4992952;28;20671;-77
2022/01/26 07:48:40;;;;;;;27.00;16.15;;;;;;;-2.29;81.50;95554.72;4993339;28;20212;-78
2022/01/26 07:51:08;;;;;;;32.97;17.45;;;;;;;-2.17;81.41;95569.00;4993248;28;20235;-78
2022/01/26 07:53:35;;;;;;;28.50;16.90;;;;;;;-2.09;81.95;95560.19;4993091;28;20209;-78
2022/01/26 07:56:02;;;;;;;20.45;12.48;;;;;;;-2.11;81.69;95561.13;4993207;28;20232;-78
2022/01/26 07:58:29;;;;;;;26.33;15.10;;;;;;;-2.12;82.05;95562.00;4992747;28;20195;-77
2022/01/26 08:00:57;;;;;;;29.05;15.55;;;;;;;-2.11;82.35;95559.41;5033809;28;20202;-78
2022/01/26 08:03:33;;;;;;;27.48;14.23;;;;;;;-2.15;82.09;95544.09;5000670;28;20206;-81
2022/01/26 08:06:06;;;;;;;27.15;14.23;;;;;;;-2.04;82.80;95563.50;5034373;28;20547;-80
2022/01/26 08:08:35;;;;;;;24.20;14.43;;;;;;;-0.65;97.78;95542.41;5033971;28;20202;-78
2022/01/26 08:11:02;;;;;;;24.75;14.13;;;;;;;-0.93;85.02;95552.72;5034222;28;20223;-78
2022/01/26 08:13:29;;;;;;;29.80;17.58;;;;;;;-1.20;81.30;95550.09;5034080;28;20203;-78
2022/01/26 08:15:57;;;;;;;32.38;16.92;;;;;;;-1.37;81.06;95551.44;5039515;28;20202;-78
2022/01/26 08:18:26;;;;;;;67.88;30.15;;;;;;;-1.62;81.81;95563.28;5053651;28;20194;-78
2022/01/26 08:20:53;;;;;;;68.63;30.60;;;;;;;-1.74;83.49;95554.13;5053956;28;20210;-78
2022/01/26 08:23:22;;;;;;;41.05;21.42;;;;;;;-1.81;84.20;95556.94;5050635;28;20210;-78
2022/01/26 08:25:51;;;;;;;42.97;25.92;;;;;;;-1.88;85.45;95553.69;5034585;28;20187;-79
2022/01/26 08:28:23;;;;;;;32.08;18.98;;;;;;;-1.94;85.28;95554.69;5034337;28;20211;-78
2022/01/26 08:30:50;;;;;;;42.70;25.77;;;;;;;-1.87;86.08;95556.22;5033774;28;20273;-77
2022/01/26 08:33:17;;;;;;;34.80;20.55;;;;;;;-1.86;86.39;95549.34;5033620;28;20733;-76
2022/01/26 08:35:46;;;;;;;29.38;18.92;;;;;;;-1.84;86.07;95551.88;5034096;28;20203;-77
2022/01/26 08:38:13;;;;;;;31.48;19.13;;;;;;;-1.85;86.51;95555.31;5033648;28;20202;-76
2022/01/26 08:40:40;;;;;;;24.00;16.58;;;;;;;-1.85;87.00;95552.75;5033766;28;20655;-78
2022/01/26 08:43:08;;;;;;;24.15;11.75;;;;;;;-1.87;86.87;95553.63;5033522;28;20261;-78
2022/01/26 08:45:35;;;;;;;30.00;17.60;;;;;;;-1.77;86.61;95558.53;5033623;28;20199;-78
2022/01/26 08:48:03;;;;;;;29.83;16.02;;;;;;;-1.74;86.89;95566.16;5033409;28;20669;-78
2022/01/26 08:50:30;;;;;;;27.40;16.50;;;;;;;-1.75;86.20;95549.03;5032985;28;20622;-77
2022/01/26 08:52:57;;;;;;;36.35;21.02;;;;;;;-1.63;86.99;95562.44;5033727;28;20212;-78
2022/01/26 08:55:24;;;;;;;22.67;17.05;;;;;;;-1.59;86.17;95556.31;5033134;28;20203;-77
2022/01/26 08:57:51;;;;;;;25.33;14.07;;;;;;;-1.57;86.40;95557.13;4982030;28;20203;-76
2022/01/26 09:00:20;;;;;;;26.23;14.45;;;;;;;-1.58;86.32;95565.72;5033341;28;20540;-77
2022/01/26 09:02:50;;;;;;;33.63;17.15;;;;;;;-1.60;86.22;95561.50;5033590;28;20545;-77
2022/01/26 09:05:17;;;;;;;32.38;16.80;;;;;;;-1.59;86.24;95561.47;5033188;28;20207;-79
2022/01/26 09:07:45;;;;;;;26.50;14.75;;;;;;;-1.52;87.09;95563.88;5033356;28;20610;-81
2022/01/26 09:10:12;;;;;;;31.27;15.50;;;;;;;-1.42;86.72;95565.31;4982138;28;20195;-80
2022/01/26 09:12:42;;;;;;;22.92;13.18;;;;;;;-1.38;86.07;95570.34;5032755;28;20757;-77
2022/01/26 09:15:11;;;;;;;24.65;11.38;;;;;;;-1.42;86.10;95552.47;5032975;28;20560;-77
2022/01/26 09:17:39;;;;;;;21.60;11.55;;;;;;;-1.33;85.52;95565.91;5033145;28;20577;-77
2022/01/26 09:20:08;;;;;;;27.98;15.38;;;;;;;-1.28;85.62;95574.34;5034533;28;20203;-76
2022/01/26 09:22:35;;;;;;;30.20;13.73;;;;;;;-1.22;85.20;95562.16;4986361;28;20654;-77
2022/01/26 09:25:02;;;;;;;19.98;13.40;;;;;;;-1.18;86.19;95569.75;5036623;28;20678;-76
2022/01/26 09:27:29;;;;;;;27.20;12.52;;;;;;;-1.12;85.34;95561.03;5036714;28;20210;-77
2022/01/26 09:29:56;;;;;;;20.17;9.98;;;;;;;-1.07;85.77;95562.59;5037022;28;20299;-76
2022/01/26 09:32:23;;;;;;;19.50;12.52;;;;;;;-1.06;85.06;95569.44;5002271;28;20585;-78
2022/01/26 09:34:52;;;;;;;16.48;11.68;;;;;;;-1.02;85.18;95570.19;5036855;28;20206;-77
2022/01/26 09:37:19;;;;;;;33.03;15.98;;;;;;;-0.94;84.55;95563.06;5036969;28;20207;-77
2022/01/26 09:39:47;;;;;;;27.80;14.82;;;;;;;-0.90;84.40;95556.94;5036713;28;20207;-77
2022/01/26 09:42:18;;;;;;;22.67;13.90;;;;;;;-0.95;84.19;95561.38;5036156;28;20208;-77
2022/01/26 09:44:45;;;;;;;21.70;11.93;;;;;;;-0.93;84.36;95546.72;5036394;28;20203;-77
2022/01/26 09:47:12;;;;;;;21.50;13.18;;;;;;;-0.80;84.22;95548.06;5001687;28;20192;-77
2022/01/26 09:49:39;;;;;;;16.80;12.38;;;;;;;-0.72;84.73;95538.34;5036659;28;20187;-77
2022/01/26 09:52:19;;;;;;;21.52;13.15;;;;;;;-0.69;83.99;95540.84;5036234;28;20223;-78
2022/01/26 09:54:47;;;;;;;21.63;13.25;;;;;;;-0.60;83.62;95533.69;5036218;28;20294;-77
2022/01/26 09:57:14;;;;;;;15.82;11.95;;;;;;;-0.55;83.16;95531.84;4985762;28;20290;-78
2022/01/26 09:59:41;;;;;;;19.65;12.55;;;;;;;-0.55;82.90;95524.97;5037587;28;20195;-78
2022/01/26 10:02:08;;;;;;;16.17;11.48;;;;;;;-0.55;83.63;95529.28;5040085;28;20207;-80
2022/01/26 10:04:38;;;;;;;20.25;12.60;;;;;;;-0.48;84.68;95525.59;5036596;28;20217;-78
2022/01/26 10:07:19;;;;;;;25.05;15.40;;;;;;;-0.35;83.56;95532.03;5036488;28;20208;-78
2022/01/26 10:10:03;;;;;;;16.98;12.35;;;;;;;-0.34;83.19;95533.72;5036088;28;20208;-79
2022/01/26 10:15:33;;;;;;;35.80;16.20;;;;;;;-0.16;86.34;95522.81;5035987;28;20200;-77
2022/01/26 10:18:04;;;;;;;29.13;15.18;;;;;;;-0.08;83.29;95531.13;5035785;28;20202;-75
2022/01/26 10:20:46;;;;;;;36.72;15.93;;;;;;;-0.03;82.63;95523.25;5035953;28;20659;-76
2022/01/26 10:23:17;;;;;;;32.60;15.27;;;;;;;-0.11;82.71;95518.34;4976557;28;20213;-77
2022/01/26 10:25:47;;;;;;;21.70;14.93;;;;;;;-0.15;82.16;95516.78;4994551;28;20212;-78
2022/01/26 10:28:18;;;;;;;23.08;13.48;;;;;;;-0.18;82.34;95514.28;4994084;28;20213;-78
2022/01/26 10:30:47;;;;;;;15.93;12.27;;;;;;;-0.17;83.14;95508.25;4993119;28;20209;-77
2022/01/26 10:33:16;;;;;;;24.33;12.20;;;;;;;-0.21;84.67;95508.41;4994513;28;20312;-77
2022/01/26 10:35:46;;;;;;;19.80;12.23;;;;;;;-0.19;84.85;95510.03;4994437;28;20205;-77
2022/01/26 10:38:16;;;;;;;29.67;17.98;;;;;;;-0.15;84.47;95510.78;4993505;28;20463;-78
2022/01/26 10:40:43;;;;;;;33.33;16.98;;;;;;;-0.06;83.70;95503.56;4945684;28;20209;-78
2022/01/26 10:43:13;;;;;;;36.58;14.60;;;;;;;-0.05;83.88;95506.97;4961710;28;20559;-78
2022/01/26 10:45:49;;;;;;;26.55;14.60;;;;;;;-0.01;84.88;95511.13;4994132;28;20201;-78
2022/01/26 10:48:25;;;;;;;25.85;13.93;;;;;;;-0.03;84.49;95498.28;4994341;28;20203;-79
2022/01/26 10:53:44;;;;;;;23.30;14.70;;;;;;;-0.05;84.36;95507.81;4936269;29;20203;-81
2022/01/26 10:56:11;;;;;;;25.13;13.65;;;;;;;-0.15;84.92;95503.03;4936134;29;20253;-80
2022/01/26 10:58:38;;;;;;;29.02;17.02;;;;;;;-0.16;85.26;95516.81;4936192;29;20610;-77
2022/01/26 11:01:05;;;;;;;15.80;12.45;;;;;;;-0.11;85.76;95505.47;4950495;29;20206;-78
2022/01/26 11:03:33;;;;;;;22.55;12.30;;;;;;;-0.14;85.72;95497.81;4908036;29;20650;-78
2022/01/26 11:06:00;;;;;;;18.33;10.75;;;;;;;-0.14;84.97;95502.97;4955545;29;20204;-77
2022/01/26 11:08:30;;;;;;;16.92;11.27;;;;;;;-0.19;85.73;95499.72;4955579;28;20191;-79
2022/01/26 11:10:59;;;;;;;23.02;12.50;;;;;;;-0.12;86.62;95506.34;4974706;28;20598;-75
2022/01/26 11:13:28;;;;;;;30.05;15.70;;;;;;;-0.12;86.53;95492.63;4974241;28;20217;-76
2022/01/26 11:16:07;;;;;;;25.42;15.60;;;;;;;-0.01;86.85;95506.81;4968851;28;20276;-77
2022/01/26 11:22:07;;;;;;;24.08;15.57;;;;;;;0.04;85.41;95511.84;4954821;28;20701;-77
2022/01/26 11:24:43;;;;;;;29.95;16.77;;;;;;;0.04;86.36;95501.53;4954604;28;20228;-76
2022/01/26 11:27:11;;;;;;;27.85;15.23;;;;;;;0.03;86.58;95506.75;4954927;29;20691;-77
2022/01/26 11:29:44;;;;;;;17.35;12.25;;;;;;;-0.02;86.84;95504.28;4964040;28;20753;-77
2022/01/26 11:32:19;;;;;;;20.52;12.13;;;;;;;0.03;87.24;95486.94;5034926;28;20235;-77
2022/01/26 11:34:50;;;;;;;16.10;11.57;;;;;;;0.07;86.99;95492.84;5034823;28;20207;-76
2022/01/26 11:37:19;;;;;;;20.75;11.93;;;;;;;0.11;86.23;95495.25;5034655;28;20196;-76
2022/01/26 11:45:35;;;;;;;18.70;13.80;;;;;;;0.16;85.17;95489.94;5034419;28;20192;-77
2022/01/26 11:48:07;;;;;;;17.02;11.85;;;;;;;0.09;85.63;95491.06;5034426;28;20286;-77
2022/01/26 11:50:36;;;;;;;14.88;12.48;;;;;;;0.12;85.90;95478.03;5034729;28;20210;-77
2022/01/26 11:53:05;;;;;;;16.98;13.00;;;;;;;0.23;85.95;95484.50;5034430;28;20227;-76
2022/01/26 11:55:40;;;;;;;21.85;12.43;;;;;;;0.29;86.04;95486.03;5034660;28;20209;-76
2022/01/26 11:58:10;;;;;;;20.13;12.02;;;;;;;0.33;85.79;95479.03;5034018;28;20214;-77
2022/01/26 12:03:29;;;;;;;26.77;16.75;;;;;;;0.38;85.30;95471.97;5012365;28;20213;-77
2022/01/26 12:05:58;;;;;;;16.55;12.52;;;;;;;0.37;86.00;95476.28;5012514;28;20223;-78
2022/01/26 12:08:33;;;;;;;19.02;12.65;;;;;;;0.43;85.71;95480.38;5012250;28;20724;-77
2022/01/26 12:11:01;;;;;;;24.42;14.60;;;;;;;0.47;86.21;95480.22;5012569;28;20209;-75
2022/01/26 12:13:31;;;;;;;20.70;13.52;;;;;;;0.50;86.14;95482.69;5011960;28;20578;-77
2022/01/26 12:16:06;;;;;;;28.60;17.98;;;;;;;0.57;85.56;95483.28;5017948;28;20197;-76
2022/01/26 12:18:37;;;;;;;37.15;22.00;;;;;;;0.57;85.87;95476.38;5031972;28;20214;-75
2022/01/26 12:35:19;;;;;;;18.35;14.23;;;;;;;0.54;87.57;95453.25;5030400;28;20329;-77
2022/01/26 12:38:04;;;;;;;18.92;13.48;;;;;;;0.55;87.59;95464.44;5029705;28;20209;-77
2022/01/26 12:43:31;;;;;;;24.52;17.08;;;;;;;0.48;87.67;95461.25;5052651;28;20212;-80
2022/01/26 12:46:00;;;;;;;32.35;22.30;;;;;;;0.44;88.49;95457.09;5001249;28;20690;-82
2022/01/26 12:48:27;;;;;;;39.33;21.98;;;;;;;0.41;89.39;95454.63;5050731;28;20294;-80
2022/01/26 12:50:55;;;;;;;30.90;19.92;;;;;;;0.46;88.77;95455.28;5033535;28;20205;-78
2022/01/26 12:53:26;;;;;;;29.73;16.55;;;;;;;0.48;88.58;95457.81;5032959;28;20232;-78
2022/01/26 12:55:58;;;;;;;24.02;15.93;;;;;;;0.42;88.25;95452.88;5032325;28;20265;-78
2022/01/26 12:58:27;;;;;;;26.30;16.98;;;;;;;0.45;88.38;95451.03;5033376;28;20185;-78
2022/01/26 13:00:54;;;;;;;33.53;19.27;;;;;;;0.51;88.15;95444.78;5033691;28;20323;-76
2022/01/26 13:03:23;;;;;;;27.92;16.23;;;;;;;0.58;88.38;95454.84;5032776;28;20258;-77
2022/01/26 13:05:50;;;;;;;28.70;17.05;;;;;;;0.61;88.08;95459.91;5033076;28;20211;-77
2022/01/26 13:08:17;;;;;;;24.70;15.88;;;;;;;0.67;89.58;95455.41;5033118;28;20209;-77
2022/01/26 13:10:43;;;;;;;24.92;18.58;;;;;;;0.64;87.71;95456.38;5033453;28;20578;-77
2022/01/26 13:13:16;;;;;;;22.58;14.50;;;;;;;0.64;87.49;95450.38;5033228;28;20670;-77
2022/01/26 13:15:49;;;;;;;23.90;17.20;;;;;;;0.70;87.56;95452.72;5032534;28;20200;-76
2022/01/26 13:18:41;;;;;;;21.75;15.57;;;;;;;0.72;87.25;95450.91;5033141;28;20202;-78